Main page
METAR-TAF:

METAR-TAF

Airports :

Shannon Airport

Shannon, Ireland

latitude: 52-42N, longitude: 008-55W, elevation: 14 m

Current weather observation

The report was made 26 minutes ago, at 01:30 UTC
Wind 6 kt from the East/Northeast
Temperature 6°C
Humidity 75%
Pressure 1023 hPa
Visibility 10 km or more
no clouds below 1500 m and no cumulonimbus

METAR: EINN 190130Z 07006KT CAVOK 06/02 Q1023 NOSIG

Time: 01:56 (01:56 UTC)

Forecast

The report was made 2 hours and 56 minutes ago, at 23:00 UTC
Forecast valid from 19 at 00 UTC to 19 at 24 UTC
Wind 9 kt from the East
Visibility 10 km or more
no clouds below 1500 m and no cumulonimbus
Probability 30% :
Temporary
from 19 at 12 UTC to 19 at 16 UTC
Broken clouds at a height of 1400 ft

TAF: EINN 182300Z 1900/1924 08009KT CAVOK PROB30 TEMPO 1912/1916 BKN014

Weather observations and forecasts of more than 4000 airports (METAR and TAF reports).

The available stations are represented by yellow and red dots on the map.

Hover mouse over dot to see the name of the station.

Then click to see weather observations and forecasts.

To change the map : click on the green buttons with a black cross to zoom in, on the green button with a dash to zoom out, or on the green arrows for adjacent maps.


METAR-TAF: